Main page
METAR-TAF:

METAR-TAF

Airports :

Ouagadougou Airport

Ouagadougou, Burkina Faso

latitude: 12-21N, longitude: 001-31W, elevation: 316 m

Current weather observation

The report was made 54 minutes ago, at 23:00 UTC
Wind 6 kt from the South/Southwest
Temperature 26°C
Humidity 79%
Pressure 1012 hPa
Visibility 10 km or more
no clouds below 1500 m and no cumulonimbus

METAR: DFFD 162300Z 21006KT CAVOK 26/22 Q1012 NOSIG

Time: 23:54 (23:54 UTC)

Forecast

The report was made 54 minutes ago, at 23:00 UTC
Forecast valid from 17 at 00 UTC to 18 at 06 UTC
Wind 10 kt from the Southwest
Visibility 10 km or more
no clouds below 1500 m and no cumulonimbus
Temporary
from 17 at 14 UTC to 17 at 24 UTC
Visibility: 4000 m
Scattered clouds at a height of 2600 ft
Few clouds at a height of 3600 ft, Cumulonimbus.
thunderstorm, rain

TAF: DFFD 162300Z 1700/1806 22010KT CAVOK TEMPO 1714/1724 4000 TSRA SCT026 FEW036CB

Weather observations and forecasts of more than 4000 airports (METAR and TAF reports).

The available stations are represented by yellow and red dots on the map.

Hover mouse over dot to see the name of the station.

Then click to see weather observations and forecasts.

To change the map : click on the green buttons with a black cross to zoom in, on the green button with a dash to zoom out, or on the green arrows for adjacent maps.


METAR-TAF: